Time;durP1;ratioP1;P1;durP2;ratioP2;P2;SDS_P1;SDS_P2;PMS_P1;PMS_P2;Temp;Humidity;BMP_temperature;BMP_pressure;BME280_temperature;BME280_humidity;BME280_pressure;Samples;Min_cycle;Max_cycle;Signal;HPM_P1;HPM_P2
2021/06/08 00:00:41;;;;;;;8.52;5.80;;;;;;;15.86;75.35;99251.34;5012433;28;20038;-70
2021/06/08 00:03:07;;;;;;;6.90;5.57;;;;;;;15.87;75.22;99250.34;5026254;28;20092;-68
2021/06/08 00:05:32;;;;;;;6.32;5.53;;;;;;;15.85;75.49;99244.34;5033799;28;20034;-68
2021/06/08 00:08:00;;;;;;;7.28;5.90;;;;;;;15.80;75.70;99242.13;5034261;28;20033;-70
2021/06/08 00:10:26;;;;;;;;;;;;;;;15.78;75.66;99251.31;5034108;28;20463;-70
2021/06/08 00:12:52;;;;;;;6.78;5.43;;;;;;;15.72;76.02;99247.44;5033713;28;19995;-69
2021/06/08 00:15:18;;;;;;;8.13;6.57;;;;;;;15.63;76.20;99249.25;5033340;28;20095;-69
2021/06/08 00:17:43;;;;;;;7.40;6.40;;;;;;;15.55;76.42;99246.53;5033212;28;20421;-70
2021/06/08 00:20:10;;;;;;;8.95;5.75;;;;;;;15.46;77.04;99245.69;5033012;28;20562;-72
2021/06/08 00:22:36;;;;;;;9.35;5.93;;;;;;;15.42;76.84;99246.19;5033034;28;20040;-69
2021/06/08 00:25:04;;;;;;;8.25;6.18;;;;;;;15.36;77.33;99251.16;5033212;28;20042;-69
2021/06/08 00:27:30;;;;;;;9.20;5.78;;;;;;;15.32;77.55;99248.97;5032645;28;20133;-75
2021/06/08 00:29:57;;;;;;;10.25;6.05;;;;;;;15.28;77.63;99252.94;5033450;28;20045;-69
2021/06/08 00:32:23;;;;;;;11.77;6.30;;;;;;;15.25;77.99;99250.59;5032862;28;20045;-73
2021/06/08 00:34:49;;;;;;;11.25;6.25;;;;;;;15.19;77.97;99246.75;5032622;28;20037;-69
2021/06/08 00:37:15;;;;;;;9.82;6.22;;;;;;;15.16;78.40;99257.72;5032986;28;20037;-69
2021/06/08 00:39:41;;;;;;;10.82;6.60;;;;;;;15.14;78.16;99247.22;5032886;28;20041;-72
2021/06/08 00:42:07;;;;;;;9.43;5.90;;;;;;;15.10;78.46;99247.69;5032984;28;20130;-73
2021/06/08 00:44:32;;;;;;;10.30;6.00;;;;;;;15.10;78.38;99253.00;5032448;28;20041;-69
2021/06/08 00:46:58;;;;;;;7.53;5.88;;;;;;;15.08;78.67;99261.16;5032967;28;20033;-71
2021/06/08 00:49:25;;;;;;;7.70;5.45;;;;;;;15.04;78.69;99265.97;5032361;28;20040;-69
2021/06/08 00:51:53;;;;;;;9.35;5.88;;;;;;;15.04;78.74;99260.66;5032844;28;20037;-70
2021/06/08 00:54:18;;;;;;;8.20;5.68;;;;;;;15.06;78.21;99270.31;5024796;28;20154;-71
2021/06/08 00:56:45;;;;;;;7.93;5.82;;;;;;;14.99;78.46;99262.94;5010514;28;20033;-71
2021/06/08 00:59:11;;;;;;;10.48;5.93;;;;;;;14.87;78.91;99264.19;5010490;28;20137;-71
2021/06/08 01:01:38;;;;;;;7.63;5.65;;;;;;;14.78;79.32;99271.28;5012239;28;20034;-71
2021/06/08 01:04:05;;;;;;;8.25;5.70;;;;;;;14.75;79.48;99258.28;5032593;28;20042;-68
2021/06/08 01:06:39;;;;;;;6.57;5.53;;;;;;;14.76;79.37;99262.63;5002621;28;20044;-73
2021/06/08 01:09:07;;;;;;;8.35;5.90;;;;;;;14.75;79.55;99265.44;4993150;28;20045;-71
2021/06/08 01:11:34;;;;;;;7.93;5.88;;;;;;;14.70;79.94;99266.75;4992532;28;20072;-71
2021/06/08 01:14:00;;;;;;;6.43;5.83;;;;;;;14.70;79.96;99264.09;4992985;28;20061;-71
2021/06/08 01:16:28;;;;;;;6.75;5.95;;;;;;;14.70;80.15;99257.91;4992750;28;20035;-69
2021/06/08 01:18:55;;;;;;;6.88;6.00;;;;;;;14.72;80.07;99255.94;4992888;28;20065;-72
2021/06/08 01:21:21;;;;;;;7.03;6.03;;;;;;;14.75;80.07;99255.63;4992923;28;20526;-71
2021/06/08 01:23:46;;;;;;;8.93;6.35;;;;;;;14.80;80.15;99257.81;4992570;28;20045;-71
2021/06/08 01:26:12;;;;;;;7.70;6.13;;;;;;;14.84;79.69;99254.69;4992212;28;20038;-70
2021/06/08 01:28:39;;;;;;;8.05;5.70;;;;;;;14.90;79.77;99253.22;4992366;28;20436;-69
2021/06/08 01:31:12;;;;;;;7.85;6.00;;;;;;;14.98;79.40;99266.59;4991243;28;20083;-73
2021/06/08 01:33:42;;;;;;;7.93;5.95;;;;;;;15.02;79.18;99259.13;4992628;28;20439;-69
2021/06/08 01:36:12;;;;;;;6.15;5.53;;;;;;;15.10;79.05;99263.66;4992497;28;20041;-71
2021/06/08 01:38:39;;;;;;;7.05;5.93;;;;;;;15.16;78.64;99257.72;4992373;28;20041;-70
2021/06/08 01:41:05;;;;;;;7.40;6.03;;;;;;;15.19;78.61;99268.06;4991307;28;20042;-69
2021/06/08 01:43:31;;;;;;;9.18;6.70;;;;;;;15.20;78.41;99257.25;4992293;28;20039;-71
2021/06/08 01:45:57;;;;;;;6.15;5.43;;;;;;;15.24;78.27;99255.09;4991229;28;20041;-69
2021/06/08 01:48:24;;;;;;;8.00;6.45;;;;;;;15.29;78.11;99258.13;4991225;28;20129;-69
2021/06/08 01:50:50;;;;;;;6.93;5.78;;;;;;;15.30;77.88;99251.78;4992692;28;20401;-70
2021/06/08 01:53:39;;;;;;;6.05;5.38;;;;;;;15.39;77.74;99251.81;4992657;28;20044;-73
2021/06/08 01:56:12;;;;;;;8.65;6.05;;;;;;;15.41;77.66;99244.50;4990982;28;20030;-70
2021/06/08 01:58:53;;;;;;;7.57;5.82;;;;;;;15.49;77.41;99247.22;4991312;28;20359;-69
2021/06/08 02:01:23;;;;;;;9.70;6.35;;;;;;;15.51;77.09;99250.53;4996423;28;20042;-69
2021/06/08 02:03:55;;;;;;;7.72;6.05;;;;;;;15.55;77.04;99243.88;5029549;28;20120;-70
2021/06/08 02:06:46;;;;;;;6.95;5.68;;;;;;;15.65;76.74;99241.94;5030270;28;20041;-69
2021/06/08 02:09:14;;;;;;;6.82;5.78;;;;;;;15.68;76.64;99246.91;5034631;28;20037;-72
2021/06/08 02:11:53;;;;;;;7.45;6.10;;;;;;;15.77;76.44;99246.97;5035117;28;20091;-73
2021/06/08 02:14:28;;;;;;;8.27;5.95;;;;;;;15.87;76.05;99250.34;5017895;28;20045;-69
2021/06/08 02:17:16;;;;;;;8.63;5.80;;;;;;;15.96;75.76;99249.38;5034535;28;20033;-69
2021/06/08 02:19:45;;;;;;;7.30;5.65;;;;;;;16.01;75.33;99255.06;5034277;28;20096;-70
2021/06/08 02:22:11;;;;;;;7.22;6.00;;;;;;;16.04;75.25;99245.88;5035460;28;20043;-69
2021/06/08 02:24:37;;;;;;;8.82;6.15;;;;;;;16.09;75.38;99248.06;5017289;28;20034;-71
2021/06/08 02:27:06;;;;;;;7.88;5.97;;;;;;;16.15;74.95;99252.75;5035326;28;20040;-70
2021/06/08 02:29:32;;;;;;;6.80;6.00;;;;;;;16.17;74.79;99248.06;5033687;28;20046;-69
2021/06/08 02:31:58;;;;;;;8.35;5.90;;;;;;;16.21;74.50;99256.56;5034086;28;20026;-68
2021/06/08 02:34:24;;;;;;;9.52;8.63;;;;;;;16.17;74.79;99251.56;5035039;28;20040;-68
2021/06/08 02:36:51;;;;;;;9.07;5.70;;;;;;;16.19;74.76;99248.72;5010185;28;20026;-69
2021/06/08 02:39:17;;;;;;;6.90;5.70;;;;;;;16.25;74.65;99252.56;5001428;28;20031;-73
2021/06/08 02:41:43;;;;;;;6.35;5.18;;;;;;;16.27;74.62;99262.06;5003039;28;20035;-69
2021/06/08 02:44:10;;;;;;;8.48;5.47;;;;;;;16.35;74.38;99258.59;4995972;28;20068;-69
2021/06/08 02:46:36;;;;;;;9.85;5.63;;;;;;;16.42;74.05;99266.75;4994067;28;20559;-72
2021/06/08 02:49:02;;;;;;;6.85;5.63;;;;;;;16.42;73.90;99262.25;4994305;28;20042;-71
2021/06/08 02:51:29;;;;;;;6.63;5.65;;;;;;;16.43;73.75;99266.59;4977998;28;20046;-74
2021/06/08 02:53:55;;;;;;;6.38;5.50;;;;;;;16.43;73.54;99255.91;4994307;28;20040;-71
2021/06/08 02:56:21;;;;;;;6.20;5.35;;;;;;;16.52;73.29;99255.91;4994855;28;20069;-73
2021/06/08 02:58:48;;;;;;;6.60;5.13;;;;;;;16.54;73.18;99254.75;4993788;28;20506;-72
2021/06/08 03:01:15;;;;;;;6.78;5.10;;;;;;;16.57;73.02;99259.72;4993973;28;20097;-70
2021/06/08 03:03:43;;;;;;;6.68;5.25;;;;;;;16.68;72.36;99257.75;5029473;28;20029;-69
2021/06/08 03:06:14;;;;;;;7.32;5.90;;;;;;;16.76;72.20;99279.09;5033696;28;20128;-73
2021/06/08 03:08:49;;;;;;;6.60;5.35;;;;;;;16.75;72.46;99272.09;5033061;28;20045;-68
2021/06/08 03:11:19;;;;;;;6.80;5.60;;;;;;;16.79;72.41;99281.44;5034587;28;20033;-74
2021/06/08 03:13:46;;;;;;;8.65;5.93;;;;;;;16.77;72.50;99268.25;5011203;28;20069;-74
2021/06/08 03:16:13;;;;;;;7.15;6.43;;;;;;;16.84;72.36;99272.94;4999707;28;20041;-70
2021/06/08 03:18:39;;;;;;;9.50;6.38;;;;;;;16.90;72.12;99266.91;5003855;28;20113;-69
2021/06/08 03:21:35;;;;;;;7.82;5.63;;;;;;;16.98;71.72;99258.91;5009777;28;20081;-69
2021/06/08 03:24:03;;;;;;;5.38;4.88;;;;;;;17.10;71.24;99262.06;4994531;28;20077;-70
2021/06/08 03:26:32;;;;;;;8.77;5.15;;;;;;;17.25;70.73;99254.16;4993089;28;20038;-68
2021/06/08 03:28:59;;;;;;;7.50;5.65;;;;;;;17.29;70.30;99256.28;4994358;28;20073;-68
2021/06/08 03:31:25;;;;;;;6.40;5.80;;;;;;;17.38;70.40;99261.63;4993282;28;20523;-68
2021/06/08 03:33:52;;;;;;;6.13;5.63;;;;;;;17.40;70.20;99259.63;4992797;28;20042;-72
2021/06/08 03:36:18;;;;;;;6.78;6.07;;;;;;;17.51;69.64;99264.59;5001701;28;20041;-70
2021/06/08 03:38:44;;;;;;;7.63;6.57;;;;;;;17.47;70.04;99263.28;4999969;28;20357;-70
2021/06/08 03:41:12;;;;;;;10.13;5.90;;;;;;;17.54;70.01;99269.56;5000209;28;20033;-69
2021/06/08 03:43:40;;;;;;;10.45;6.35;;;;;;;17.76;69.24;99267.16;5006720;28;20041;-68
2021/06/08 03:46:06;;;;;;;9.20;6.10;;;;;;;17.88;68.81;99271.09;4995641;28;20038;-70
2021/06/08 03:48:32;;;;;;;8.20;5.93;;;;;;;17.93;68.33;99266.03;4994255;28;20526;-69
2021/06/08 03:50:58;;;;;;;5.97;5.28;;;;;;;18.11;67.89;99267.63;4993184;28;20042;-70
2021/06/08 03:53:25;;;;;;;8.98;5.97;;;;;;;18.19;67.39;99272.91;4994103;28;20045;-69
2021/06/08 03:55:51;;;;;;;5.45;4.78;;;;;;;18.19;67.34;99272.91;4994144;28;20050;-74
2021/06/08 03:58:18;;;;;;;9.32;5.00;;;;;;;18.33;66.92;99274.00;4994163;28;20121;-69
2021/06/08 04:00:47;;;;;;;6.35;5.00;;;;;;;18.20;66.74;99274.59;4995584;28;20034;-70
2021/06/08 04:03:14;;;;;;;6.15;4.85;;;;;;;18.34;66.52;99274.84;5011069;28;20077;-70
2021/06/08 04:05:41;;;;;;;6.15;4.63;;;;;;;18.39;65.87;99267.94;4994514;28;20046;-72
2021/06/08 04:08:09;;;;;;;5.93;4.37;;;;;;;18.40;65.83;99272.25;5001928;28;20038;-72
2021/06/08 04:10:36;;;;;;;4.50;4.03;;;;;;;18.30;65.68;99273.53;5000381;28;20286;-70
2021/06/08 04:13:04;;;;;;;5.78;4.43;;;;;;;18.26;65.70;99279.22;5003794;28;20156;-71
2021/06/08 04:15:30;;;;;;;5.47;4.10;;;;;;;18.14;65.90;99280.66;5013352;28;20053;-74
2021/06/08 04:17:57;;;;;;;7.40;4.50;;;;;;;18.16;66.29;99267.13;5013510;28;20034;-70
2021/06/08 04:20:26;;;;;;;9.90;4.75;;;;;;;18.18;66.64;99275.78;5013727;28;20470;-70
2021/06/08 04:22:57;;;;;;;12.75;4.78;;;;;;;18.22;65.94;99280.59;5002526;28;20050;-71
2021/06/08 04:25:24;;;;;;;14.65;4.70;;;;;;;18.20;65.82;99277.25;5009299;28;20041;-73
2021/06/08 04:27:50;;;;;;;10.60;4.13;;;;;;;18.28;65.24;99281.75;5011943;28;20042;-71
2021/06/08 04:30:17;;;;;;;7.70;3.35;;;;;;;18.29;65.12;99266.50;5010830;28;20042;-71
2021/06/08 04:32:43;;;;;;;7.07;3.83;;;;;;;18.23;65.74;99273.41;5002809;28;20034;-71
2021/06/08 04:35:10;;;;;;;8.93;4.28;;;;;;;18.27;65.83;99275.56;4992151;28;20034;-70
2021/06/08 04:37:36;;;;;;;10.20;4.28;;;;;;;18.33;66.31;99276.69;5000355;28;20042;-70
2021/06/08 04:40:04;;;;;;;7.00;3.15;;;;;;;18.48;65.97;99276.75;5012697;28;20124;-72
2021/06/08 04:42:29;;;;;;;;;;;;;;;18.64;65.48;99285.66;5013585;28;20136;-72
2021/06/08 04:44:55;;;;;;;11.10;3.58;;;;;;;18.77;65.29;99280.50;5012900;28;19960;-70
2021/06/08 04:47:22;;;;;;;10.20;4.15;;;;;;;18.72;64.87;99282.91;5013404;28;20145;-74
2021/06/08 04:49:52;;;;;;;13.37;3.73;;;;;;;18.78;64.73;99279.50;5012938;28;20460;-71
2021/06/08 04:52:18;;;;;;;11.10;3.22;;;;;;;18.72;64.62;99278.38;5011138;28;20038;-70
2021/06/08 04:54:47;;;;;;;5.47;2.80;;;;;;;18.72;64.37;99288.28;5012335;28;20434;-70
2021/06/08 04:57:15;;;;;;;8.38;2.80;;;;;;;18.75;64.54;99287.88;5012286;28;20073;-72
2021/06/08 05:00:07;;;;;;;6.20;2.90;;;;;;;18.76;64.32;99286.88;5012425;28;20088;-73
2021/06/08 05:02:36;;;;;;;10.00;2.78;;;;;;;18.89;64.01;99294.28;5031569;28;20128;-79
2021/06/08 05:05:08;;;;;;;8.20;3.85;;;;;;;18.89;63.54;99289.78;5032485;28;20107;-75
2021/06/08 05:07:42;;;;;;;5.38;2.88;;;;;;;18.72;64.17;99294.44;5031294;28;20040;-80
2021/06/08 05:10:09;;;;;;;4.18;2.70;;;;;;;18.73;64.47;99298.78;5030927;28;20417;-72
2021/06/08 05:12:36;;;;;;;4.90;3.08;;;;;;;18.86;64.32;99292.81;5030961;28;20099;-73
2021/06/08 05:15:03;;;;;;;4.20;2.30;;;;;;;19.04;63.97;99291.66;5031240;28;20037;-72
2021/06/08 05:17:31;;;;;;;4.05;2.78;;;;;;;19.18;64.04;99293.53;5030777;28;20040;-72
2021/06/08 05:19:56;;;;;;;5.00;2.58;;;;;;;19.19;64.00;99295.22;5030561;28;20045;-72
2021/06/08 05:22:23;;;;;;;3.35;2.90;;;;;;;19.16;63.70;99298.25;5031140;28;20049;-71
2021/06/08 05:24:54;;;;;;;6.43;2.88;;;;;;;19.19;63.90;99294.38;5031818;28;20045;-72
2021/06/08 05:27:21;;;;;;;6.88;3.35;;;;;;;19.30;64.02;99299.28;5031527;28;20524;-76
2021/06/08 05:29:57;;;;;;;6.97;2.80;;;;;;;19.46;64.08;99300.13;5031891;28;20036;-78
2021/06/08 05:32:23;;;;;;;5.00;3.10;;;;;;;19.61;64.20;99286.69;5032047;28;20303;-73
2021/06/08 05:34:49;;;;;;;5.65;3.05;;;;;;;19.76;63.50;99289.34;5031555;28;20037;-79
2021/06/08 05:37:16;;;;;;;6.03;3.63;;;;;;;19.78;63.52;99292.69;5031747;28;20033;-72
2021/06/08 05:39:42;;;;;;;5.47;3.00;;;;;;;19.86;63.04;99296.13;5031350;28;20389;-75
2021/06/08 05:42:11;;;;;;;6.13;3.15;;;;;;;19.92;63.07;99299.06;5035998;28;20033;-77
2021/06/08 05:44:40;;;;;;;8.35;3.30;;;;;;;19.96;62.31;99300.34;5037477;28;20068;-73
2021/06/08 05:47:07;;;;;;;7.15;2.88;;;;;;;20.12;61.90;99301.97;5036979;28;20521;-74
2021/06/08 05:49:36;;;;;;;6.60;2.90;;;;;;;20.10;62.18;99302.19;5038564;28;20044;-79
2021/06/08 05:52:05;;;;;;;5.28;2.53;;;;;;;20.19;61.22;99297.53;5038578;28;20042;-72
2021/06/08 05:54:33;;;;;;;7.22;2.35;;;;;;;20.28;61.24;99308.97;5038369;28;20445;-72
2021/06/08 05:56:59;;;;;;;6.80;2.58;;;;;;;20.51;60.97;99304.25;5036648;28;20374;-72
2021/06/08 05:59:26;;;;;;;5.25;2.50;;;;;;;20.68;59.98;99298.59;5037196;28;20459;-78
2021/06/08 06:01:53;;;;;;;5.68;2.55;;;;;;;20.78;59.71;99295.63;5034274;28;20034;-75
2021/06/08 06:04:21;;;;;;;4.22;2.30;;;;;;;20.84;59.56;99301.03;5017442;28;20049;-73
2021/06/08 06:06:47;;;;;;;4.72;3.28;;;;;;;20.99;58.77;99292.06;5018175;28;20041;-75
2021/06/08 06:09:14;;;;;;;5.50;2.60;;;;;;;21.31;57.29;99293.28;5018395;28;20041;-73
2021/06/08 06:11:42;;;;;;;4.00;2.42;;;;;;;21.69;56.40;99294.75;5014666;28;20076;-74
2021/06/08 06:14:08;;;;;;;3.53;2.33;;;;;;;22.03;55.74;99284.94;5008577;28;20570;-72
2021/06/08 06:16:41;;;;;;;4.32;2.08;;;;;;;22.14;54.89;99280.81;5006543;28;20057;-71
2021/06/08 06:19:12;;;;;;;3.13;2.13;;;;;;;22.29;54.65;99284.19;5006657;28;20136;-71
2021/06/08 06:21:39;;;;;;;2.60;2.10;;;;;;;22.58;53.16;99292.09;5005358;28;20069;-73
2021/06/08 06:24:06;;;;;;;3.15;2.13;;;;;;;22.68;52.85;99292.53;4991440;28;20525;-73
2021/06/08 06:26:33;;;;;;;3.25;2.45;;;;;;;22.67;52.95;99290.88;5007818;28;20148;-77
2021/06/08 06:28:59;;;;;;;2.38;1.90;;;;;;;22.58;53.59;99286.69;5008313;28;20189;-77
2021/06/08 06:31:26;;;;;;;2.80;2.40;;;;;;;22.39;53.62;99288.34;4979618;28;20097;-72
2021/06/08 06:33:58;;;;;;;3.22;2.50;;;;;;;22.35;54.04;99287.09;5007235;28;20382;-72
2021/06/08 06:36:26;;;;;;;4.65;2.70;;;;;;;22.27;54.97;99290.81;5007481;28;20030;-72
2021/06/08 06:38:52;;;;;;;6.88;3.50;;;;;;;22.14;54.30;99287.06;5004840;28;20080;-72
2021/06/08 06:41:19;;;;;;;3.22;2.90;;;;;;;22.38;54.27;99292.94;5006309;28;20084;-71
2021/06/08 06:43:50;;;;;;;4.18;2.72;;;;;;;22.55;53.88;99292.53;5023024;28;20034;-73
2021/06/08 06:46:16;;;;;;;5.40;3.10;;;;;;;22.48;53.77;99289.84;5022414;28;20067;-72
2021/06/08 06:48:44;;;;;;;2.90;2.15;;;;;;;22.34;52.57;99291.63;5014955;28;20050;-76
2021/06/08 06:51:11;;;;;;;5.60;2.47;;;;;;;22.14;53.63;99291.59;5008059;28;20030;-71
2021/06/08 06:53:37;;;;;;;3.15;2.85;;;;;;;21.99;54.17;99286.38;5002321;28;20025;-72
2021/06/08 06:56:04;;;;;;;4.75;2.85;;;;;;;21.74;54.74;99292.28;5008163;28;20380;-73
2021/06/08 06:58:32;;;;;;;5.10;2.30;;;;;;;21.91;54.33;99289.25;5004042;28;20380;-71
2021/06/08 07:00:58;;;;;;;4.57;2.72;;;;;;;22.05;54.09;99288.25;5008307;28;20092;-78
2021/06/08 07:03:28;;;;;;;3.38;2.45;;;;;;;22.08;53.33;99292.41;5011041;28;20507;-72
2021/06/08 07:05:54;;;;;;;3.25;2.72;;;;;;;22.02;53.17;99294.06;5002860;28;20476;-75
2021/06/08 07:08:24;;;;;;;27.45;24.60;;;;;;;22.21;53.47;99297.00;5006368;28;20049;-72
2021/06/08 07:10:51;;;;;;;4.72;2.65;;;;;;;22.12;53.99;99289.09;5011653;28;20494;-70
2021/06/08 07:13:17;;;;;;;3.85;2.60;;;;;;;22.41;53.88;99289.81;5013278;28;20107;-71
2021/06/08 07:15:45;;;;;;;4.68;2.60;;;;;;;22.52;53.91;99287.53;4997000;28;20038;-76
2021/06/08 07:18:12;;;;;;;5.68;2.92;;;;;;;22.62;53.61;99298.75;4997204;28;20084;-71
2021/06/08 07:20:39;;;;;;;7.40;2.67;;;;;;;22.59;53.58;99299.16;5013232;28;20036;-75
2021/06/08 07:23:05;;;;;;;4.77;2.83;;;;;;;22.70;53.63;99289.63;5004930;28;20034;-74
2021/06/08 07:25:38;;;;;;;3.10;2.80;;;;;;;22.83;53.06;99296.88;5006056;28;20115;-74
2021/06/08 07:28:06;;;;;;;3.63;2.53;;;;;;;22.99;52.37;99301.88;5012941;28;20038;-71
2021/06/08 07:30:32;;;;;;;;;;;;;;;23.09;51.52;99299.56;5014954;28;20099;-73
2021/06/08 07:33:18;;;;;;;2.40;2.10;;;;;;;22.69;52.53;99298.75;5012903;28;19913;-71
2021/06/08 07:36:03;;;;;;;5.55;2.55;;;;;;;22.80;52.53;99297.31;5012951;28;20125;-74
2021/06/08 07:38:34;;;;;;;5.07;2.35;;;;;;;22.69;52.71;99288.81;5014359;28;20139;-74
2021/06/08 07:41:25;;;;;;;3.97;2.60;;;;;;;22.69;52.83;99302.28;5012765;28;20167;-74
2021/06/08 07:44:00;;;;;;;3.92;2.05;;;;;;;22.80;51.99;99305.41;5012792;28;20042;-71
2021/06/08 07:46:26;;;;;;;4.15;2.45;;;;;;;23.18;51.30;99304.75;5013218;28;20465;-74
2021/06/08 07:48:54;;;;;;;3.20;2.35;;;;;;;23.67;50.12;99307.97;4985122;28;20113;-73
2021/06/08 07:51:21;;;;;;;3.08;2.30;;;;;;;23.64;49.12;99301.13;4993618;28;20038;-79
2021/06/08 07:53:47;;;;;;;3.35;2.38;;;;;;;23.69;48.87;99312.13;4998891;28;20033;-76
2021/06/08 07:56:13;;;;;;;3.88;2.28;;;;;;;24.23;47.62;99295.66;4994178;28;20038;-75
2021/06/08 07:58:39;;;;;;;3.30;2.10;;;;;;;24.72;47.08;99301.38;4994064;28;20062;-72
2021/06/08 08:01:07;;;;;;;3.43;2.27;;;;;;;25.40;45.26;99293.50;4992840;28;20026;-73
2021/06/08 08:03:34;;;;;;;3.78;2.67;;;;;;;26.03;43.93;99294.19;5000252;28;20049;-71
2021/06/08 08:06:08;;;;;;;3.63;2.33;;;;;;;26.77;42.16;99291.25;4997923;28;20058;-73
2021/06/08 08:08:35;;;;;;;4.50;2.40;;;;;;;27.10;42.17;99285.25;5008199;28;20395;-75
2021/06/08 08:11:05;;;;;;;6.70;2.50;;;;;;;28.00;40.04;99289.56;4996542;28;20029;-73
2021/06/08 08:13:31;;;;;;;3.67;2.40;;;;;;;30.12;36.50;99279.91;4993987;28;20041;-71
2021/06/08 08:15:57;;;;;;;4.32;2.30;;;;;;;30.19;35.97;99286.00;5005038;28;20026;-71
2021/06/08 08:18:23;;;;;;;4.07;2.53;;;;;;;30.28;36.09;99280.91;5002473;28;20041;-79
2021/06/08 08:20:53;;;;;;;4.10;2.80;;;;;;;30.32;36.14;99276.59;5000672;28;20033;-78
2021/06/08 08:23:20;;;;;;;3.40;2.20;;;;;;;31.43;33.60;99270.56;5005181;28;20054;-83
2021/06/08 08:25:47;;;;;;;2.53;2.10;;;;;;;30.66;33.98;99268.97;5007609;28;20053;-79
2021/06/08 08:28:14;;;;;;;2.47;1.70;;;;;;;31.09;33.10;99271.75;4994029;28;20049;-79
2021/06/08 08:30:40;;;;;;;4.95;2.10;;;;;;;32.73;31.28;99258.78;4992920;28;20237;-76
2021/06/08 08:33:06;;;;;;;3.00;1.98;;;;;;;33.49;29.30;99254.25;5013202;28;20038;-75
2021/06/08 08:35:36;;;;;;;3.08;2.00;;;;;;;35.44;27.63;99255.72;5000680;28;20034;-74
2021/06/08 08:38:02;;;;;;;3.08;1.85;;;;;;;36.34;25.36;99255.00;5002388;28;20125;-74
2021/06/08 08:40:29;;;;;;;4.25;2.38;;;;;;;35.55;26.12;99239.91;5009510;28;20426;-77
2021/06/08 08:42:55;;;;;;;3.97;2.20;;;;;;;36.13;26.31;99249.84;5010805;28;20173;-78
2021/06/08 08:45:21;;;;;;;3.17;2.30;;;;;;;37.10;24.42;99241.03;4995245;28;20050;-80
2021/06/08 08:47:47;;;;;;;;;;;;;;;37.35;23.94;99238.88;5007916;28;20042;-77
2021/06/08 08:50:15;;;;;;;4.65;2.97;;;;;;;37.21;23.22;99236.09;5010148;28;19909;-76
2021/06/08 08:52:45;;;;;;;4.40;2.20;;;;;;;37.76;23.67;99226.97;5011159;28;20036;-76
2021/06/08 08:55:13;;;;;;;2.40;2.20;;;;;;;37.17;24.14;99235.91;5002418;28;20037;-76
2021/06/08 08:57:43;;;;;;;2.22;1.92;;;;;;;37.29;23.56;99229.88;4992561;28;20046;-76
2021/06/08 09:00:10;;;;;;;4.13;2.03;;;;;;;37.36;23.91;99226.72;4994719;28;20495;-76
2021/06/08 09:02:35;;;;;;;3.15;1.80;;;;;;;37.34;23.71;99226.25;4996638;28;20476;-76
2021/06/08 09:05:02;;;;;;;2.97;1.17;;;;;;;37.52;22.75;99225.28;5000443;28;20026;-75
2021/06/08 09:07:29;;;;;;;2.80;1.50;;;;;;;34.69;25.79;99218.59;5012427;28;20042;-78
2021/06/08 09:09:55;;;;;;;2.35;1.42;;;;;;;32.67;28.65;99230.56;5008444;28;20058;-77
2021/06/08 09:12:21;;;;;;;3.28;1.90;;;;;;;33.99;27.24;99224.06;5012951;28;20076;-81
2021/06/08 09:14:47;;;;;;;3.08;1.80;;;;;;;35.95;25.49;99227.53;5016018;28;20092;-77
2021/06/08 09:17:17;;;;;;;2.08;1.50;;;;;;;36.35;23.97;99231.84;5001472;28;20040;-79
2021/06/08 09:19:43;;;;;;;1.98;1.33;;;;;;;37.35;23.14;99223.16;4992047;28;20133;-77
2021/06/08 09:22:11;;;;;;;1.48;1.05;;;;;;;38.43;22.35;99219.84;4991690;28;20038;-77
2021/06/08 09:24:41;;;;;;;1.40;1.30;;;;;;;38.46;21.59;99222.00;5001280;28;20663;-76
2021/06/08 09:27:09;;;;;;;2.50;1.58;;;;;;;37.94;22.15;99222.41;5003396;28;20042;-77
2021/06/08 09:29:38;;;;;;;1.38;1.23;;;;;;;38.08;22.44;99222.34;5003368;28;20054;-80
2021/06/08 09:32:16;;;;;;;1.80;1.30;;;;;;;38.45;21.82;99219.56;5000568;28;20038;-79
2021/06/08 09:34:46;;;;;;;1.70;1.38;;;;;;;38.35;21.78;99215.09;4999880;28;20041;-76
2021/06/08 09:37:12;;;;;;;2.20;1.58;;;;;;;37.16;22.47;99209.47;5000333;28;20084;-74
2021/06/08 09:39:48;;;;;;;2.80;1.70;;;;;;;35.73;24.48;99205.25;5007394;28;20422;-77
2021/06/08 09:42:24;;;;;;;;;;;;;;;35.29;24.94;99205.28;5000353;28;20041;-77
2021/06/08 09:44:51;;;;;;;3.08;1.55;;;;;;;35.95;24.64;99202.78;5003507;28;19960;-76
2021/06/08 09:47:28;;;;;;;1.73;0.98;;;;;;;33.64;27.06;99201.22;5001598;28;20665;-77
2021/06/08 09:49:58;;;;;;;2.45;1.55;;;;;;;34.21;26.80;99197.28;5002378;28;20042;-78
2021/06/08 09:52:24;;;;;;;2.55;1.40;;;;;;;35.56;24.91;99192.03;5016303;28;20035;-77
2021/06/08 09:54:52;;;;;;;1.88;1.63;;;;;;;35.57;24.91;99183.47;5002768;28;20467;-76
2021/06/08 09:57:32;;;;;;;2.67;1.40;;;;;;;35.85;24.99;99189.09;5001574;28;20042;-79
2021/06/08 09:59:59;;;;;;;1.73;1.40;;;;;;;35.94;24.43;99187.38;5002072;28;20107;-79
2021/06/08 10:02:33;;;;;;;1.85;1.50;;;;;;;35.05;24.93;99182.50;4999274;28;20117;-78
2021/06/08 10:05:31;;;;;;;3.08;1.50;;;;;;;35.40;24.78;99178.47;5000265;28;20041;-79
2021/06/08 10:07:57;;;;;;;2.45;1.65;;;;;;;35.11;24.95;99176.63;4977994;28;20101;-78
2021/06/08 10:10:46;;;;;;;3.43;1.73;;;;;;;35.10;25.79;99185.19;4964161;28;20034;-77
2021/06/08 10:13:16;;;;;;;2.30;1.50;;;;;;;34.73;26.18;99183.94;4969456;28;20057;-76
2021/06/08 10:15:56;;;;;;;2.05;1.50;;;;;;;35.34;25.11;99173.34;4980194;28;20045;-79
2021/06/08 10:18:23;;;;;;;3.22;1.15;;;;;;;34.03;25.42;99185.91;4993311;28;20495;-79
2021/06/08 10:20:50;;;;;;;1.50;1.10;;;;;;;31.96;28.14;99180.22;4959200;28;20030;-76
2021/06/08 10:23:31;;;;;;;2.00;1.40;;;;;;;31.49;29.25;99168.38;4991653;28;20274;-77
2021/06/08 10:25:59;;;;;;;4.10;1.35;;;;;;;30.40;30.64;99164.22;4990158;28;20097;-78
2021/06/08 10:28:25;;;;;;;2.78;1.67;;;;;;;29.96;32.11;99156.25;4991487;28;20046;-76
2021/06/08 10:30:52;;;;;;;2.95;1.58;;;;;;;30.34;31.47;99157.91;4993429;28;20109;-76
2021/06/08 10:33:21;;;;;;;4.20;1.67;;;;;;;30.90;30.02;99158.53;4994222;28;20038;-76
2021/06/08 10:35:48;;;;;;;1.55;1.20;;;;;;;31.89;28.71;99152.28;4993621;28;20053;-76
2021/06/08 10:38:14;;;;;;;3.38;1.38;;;;;;;32.99;27.79;99143.69;4993788;28;20065;-75
2021/06/08 10:40:42;;;;;;;1.30;1.20;;;;;;;32.55;28.12;99143.25;4993415;28;20038;-77
2021/06/08 10:43:15;;;;;;;3.45;1.30;;;;;;;31.57;29.91;99156.06;4981237;28;20077;-79
2021/06/08 10:45:42;;;;;;;1.98;1.40;;;;;;;30.87;30.77;99142.66;4995986;28;20082;-79
2021/06/08 10:48:14;;;;;;;1.85;1.40;;;;;;;30.99;30.46;99135.06;4995131;28;20157;-79
2021/06/08 10:50:44;;;;;;;2.20;1.17;;;;;;;31.55;30.38;99128.97;4995730;28;20038;-76
2021/06/08 10:53:27;;;;;;;2.00;1.20;;;;;;;30.81;30.56;99139.91;4994836;28;20491;-74
2021/06/08 10:55:52;;;;;;;2.60;1.20;;;;;;;29.85;32.14;99128.03;5004118;28;20030;-77
2021/06/08 10:58:42;;;;;;;3.05;1.73;;;;;;;28.49;35.03;99142.19;5003174;28;20081;-76
2021/06/08 11:01:31;;;;;;;3.05;1.45;;;;;;;27.68;37.25;99146.03;5003475;28;20117;-76
2021/06/08 11:03:59;;;;;;;3.40;1.48;;;;;;;27.22;38.18;99154.09;5001272;28;20910;-75
2021/06/08 11:06:37;;;;;;;3.85;2.53;;;;;;;26.60;39.53;99145.41;4998572;28;20081;-75
2021/06/08 11:09:12;;;;;;;3.88;2.20;;;;;;;26.16;39.93;99136.81;5002495;28;20124;-75
2021/06/08 11:11:52;;;;;;;4.20;1.80;;;;;;;25.82;41.12;99136.47;5005181;28;20033;-74
2021/06/08 11:14:42;;;;;;;3.30;1.70;;;;;;;25.85;41.16;99144.16;5004610;28;20042;-75
2021/06/08 11:17:29;;;;;;;3.63;1.70;;;;;;;25.22;44.33;99173.28;4997964;28;20049;-76
2021/06/08 11:20:06;;;;;;;4.10;1.90;;;;;;;24.43;47.30;99162.25;4994942;28;20034;-76
2021/06/08 11:22:34;;;;;;;5.07;1.80;;;;;;;24.28;47.96;99149.91;4994958;28;20074;-75
2021/06/08 11:25:02;;;;;;;2.83;1.70;;;;;;;23.99;49.04;99160.31;4993696;28;20046;-79
2021/06/08 11:27:53;;;;;;;4.28;1.83;;;;;;;23.59;50.46;99169.47;4994903;28;20467;-78
2021/06/08 11:30:24;;;;;;;7.13;2.40;;;;;;;23.35;50.97;99183.69;4994891;28;20079;-76
2021/06/08 11:32:52;;;;;;;2.90;1.77;;;;;;;23.22;51.27;99181.91;4994997;28;20080;-76
2021/06/08 11:35:21;;;;;;;3.10;1.90;;;;;;;23.14;51.36;99193.72;4994519;28;20069;-75
2021/06/08 11:37:54;;;;;;;2.70;1.48;;;;;;;22.80;51.79;99208.31;4994848;28;20547;-79
2021/06/08 11:40:36;;;;;;;3.22;1.60;;;;;;;22.43;52.79;99188.03;4993118;28;20073;-77
2021/06/08 11:43:11;;;;;;;1.80;1.42;;;;;;;22.04;54.34;99178.03;4994456;28;20468;-74